Time;durP1;ratioP1;P1;durP2;ratioP2;P2;SDS_P1;SDS_P2;PMS_P1;PMS_P2;Temp;Humidity;BMP_temperature;BMP_pressure;BME280_temperature;BME280_humidity;BME280_pressure;Samples;Min_cycle;Max_cycle;Signal;HPM_P1;HPM_P2
2021/11/06 00:00:00;;;;;;;9.38;2.30;;;8.20;99.90;;;;;;4983869;28;20042;-84
2021/11/06 00:02:26;;;;;;;8.10;2.40;;;8.30;99.90;;;;;;4967455;28;20238;-86
2021/11/06 00:04:52;;;;;;;8.05;2.40;;;8.30;99.90;;;;;;4995284;28;20696;-86
2021/11/06 00:07:17;;;;;;;9.80;2.47;;;8.30;99.90;;;;;;4968074;28;20091;-87
2021/11/06 00:09:44;;;;;;;6.05;2.10;;;8.30;99.90;;;;;;4985093;28;20085;-87
2021/11/06 00:12:10;;;;;;;6.32;2.60;;;8.30;99.90;;;;;;4984826;28;20045;-86
2021/11/06 00:14:36;;;;;;;11.43;2.67;;;8.30;99.90;;;;;;5003172;28;20397;-86
2021/11/06 00:17:02;;;;;;;10.85;2.63;;;8.30;99.90;;;;;;4951892;28;20083;-86
2021/11/06 00:19:28;;;;;;;8.38;2.40;;;8.30;99.90;;;;;;4981425;28;20046;-86
2021/11/06 00:21:54;;;;;;;10.85;2.22;;;8.30;99.90;;;;;;4986975;28;20045;-86
2021/11/06 00:24:20;;;;;;;9.70;2.53;;;8.30;99.90;;;;;;4985146;28;20048;-86
2021/11/06 00:26:50;;;;;;;6.45;2.22;;;8.40;99.90;;;;;;4985206;28;20045;-86
2021/11/06 00:29:17;;;;;;;7.40;2.30;;;8.40;99.90;;;;;;4982875;28;20095;-86
2021/11/06 00:31:43;;;;;;;8.98;2.92;;;8.30;99.90;;;;;;5002160;28;20076;-86
2021/11/06 00:34:08;;;;;;;7.63;2.47;;;8.40;99.90;;;;;;4965983;28;20046;-86
2021/11/06 00:36:34;;;;;;;15.18;3.00;;;8.40;99.90;;;;;;5002504;28;20045;-87
2021/11/06 00:39:02;;;;;;;9.13;2.25;;;8.40;99.90;;;;;;4981311;28;20044;-88
2021/11/06 00:41:28;;;;;;;8.05;3.00;;;8.40;99.90;;;;;;4966777;28;20064;-87
2021/11/06 00:43:53;;;;;;;8.35;2.40;;;8.40;99.90;;;;;;4985053;28;20389;-86
2021/11/06 00:46:19;;;;;;;4.53;2.30;;;8.40;99.90;;;;;;4998310;28;20031;-86
2021/11/06 00:48:45;;;;;;;10.65;2.80;;;8.40;99.90;;;;;;4980744;28;20065;-86
2021/11/06 00:51:11;;;;;;;9.40;2.50;;;8.40;99.90;;;;;;4981354;28;20041;-86
2021/11/06 00:53:37;;;;;;;12.13;2.70;;;8.40;99.90;;;;;;4963077;28;21224;-86
2021/11/06 00:56:05;;;;;;;9.88;2.97;;;8.40;99.90;;;;;;4995657;28;20030;-87
2021/11/06 00:58:31;;;;;;;13.50;2.90;;;8.40;99.90;;;;;;4998645;28;20591;-86
2021/11/06 01:00:57;;;;;;;11.65;3.00;;;8.40;99.90;;;;;;4997817;28;20080;-86
2021/11/06 01:03:23;;;;;;;8.65;2.95;;;8.40;99.90;;;;;;4976118;28;20164;-86
2021/11/06 01:05:49;;;;;;;8.80;2.85;;;8.40;99.90;;;;;;4995834;28;20543;-87
2021/11/06 01:08:15;;;;;;;9.88;2.60;;;8.50;99.90;;;;;;4980543;28;20133;-85
2021/11/06 01:10:43;;;;;;;10.55;2.70;;;8.50;99.90;;;;;;4984548;28;20575;-87
2021/11/06 01:13:09;;;;;;;8.18;2.83;;;8.40;99.90;;;;;;4962547;28;20284;-86
2021/11/06 01:15:35;;;;;;;8.38;2.88;;;8.50;99.90;;;;;;4995413;28;20041;-86
2021/11/06 01:18:02;;;;;;;11.73;3.25;;;8.50;99.90;;;;;;5006863;28;20046;-87
2021/11/06 01:20:28;;;;;;;9.23;2.80;;;8.40;99.90;;;;;;4978496;28;20135;-86
2021/11/06 01:22:54;;;;;;;11.57;3.50;;;8.50;99.90;;;;;;4982052;28;20045;-86
2021/11/06 01:25:20;;;;;;;7.60;2.58;;;8.40;99.90;;;;;;4977137;28;20672;-88
2021/11/06 01:27:46;;;;;;;10.05;2.85;;;8.40;99.90;;;;;;4980006;28;20485;-86
2021/11/06 01:30:12;;;;;;;9.45;2.90;;;8.40;99.90;;;;;;4979058;28;20538;-87
2021/11/06 01:32:39;;;;;;;9.38;2.90;;;8.40;99.90;;;;;;4978781;28;21571;-86
2021/11/06 01:35:06;;;;;;;10.55;3.08;;;8.40;99.90;;;;;;4980468;28;20504;-86
2021/11/06 01:37:32;;;;;;;12.55;3.35;;;8.40;99.90;;;;;;4980274;28;20065;-87
2021/11/06 01:39:58;;;;;;;8.63;3.00;;;8.40;99.90;;;;;;4981970;28;20133;-86
2021/11/06 01:42:25;;;;;;;8.18;2.85;;;8.40;99.90;;;;;;4962289;28;20037;-86
2021/11/06 01:44:51;;;;;;;8.75;3.05;;;8.40;99.90;;;;;;4980987;28;20042;-87
2021/11/06 01:47:17;;;;;;;9.77;3.15;;;8.40;99.90;;;;;;4961087;28;20044;-87
2021/11/06 01:49:43;;;;;;;8.65;2.95;;;8.40;99.90;;;;;;4965757;28;20096;-86
2021/11/06 01:52:10;;;;;;;7.07;2.83;;;8.30;99.90;;;;;;4961614;28;20556;-87
2021/11/06 01:54:36;;;;;;;11.57;3.60;;;8.30;99.90;;;;;;4979924;28;20042;-88
2021/11/06 01:57:03;;;;;;;7.93;3.15;;;8.30;99.90;;;;;;4982701;28;20038;-87
2021/11/06 01:59:29;;;;;;;13.32;3.30;;;8.40;99.90;;;;;;4959178;28;20871;-86
2021/11/06 02:01:56;;;;;;;11.02;3.58;;;8.30;99.90;;;;;;4975780;28;20049;-87
2021/11/06 02:04:21;;;;;;;5.97;3.13;;;8.40;99.90;;;;;;4980309;28;20273;-86
2021/11/06 02:06:47;;;;;;;7.25;3.22;;;8.40;99.90;;;;;;4963177;28;20511;-87
2021/11/06 02:09:13;;;;;;;11.65;4.20;;;8.40;99.90;;;;;;4962116;28;20041;-87
2021/11/06 02:11:39;;;;;;;10.77;3.90;;;8.40;99.90;;;;;;4997095;28;20116;-86
2021/11/06 02:14:06;;;;;;;9.32;3.72;;;8.40;99.90;;;;;;4952193;28;20489;-86
2021/11/06 02:16:32;;;;;;;11.15;4.18;;;8.40;99.90;;;;;;4980383;28;20034;-86
2021/11/06 02:18:58;;;;;;;15.85;4.50;;;8.40;99.90;;;;;;4959271;28;20065;-86
2021/11/06 02:21:24;;;;;;;15.30;4.35;;;8.40;99.90;;;;;;4997920;28;20037;-87
2021/11/06 02:23:50;;;;;;;15.63;4.45;;;8.40;99.90;;;;;;4960940;28;20401;-86
2021/11/06 02:26:18;;;;;;;13.80;4.32;;;8.40;99.90;;;;;;4977694;28;20037;-87
2021/11/06 02:28:53;;;;;;;16.90;5.15;;;8.40;99.90;;;;;;4997166;28;20045;-87
2021/11/06 02:31:20;;;;;;;8.45;4.13;;;8.50;99.90;;;;;;4978538;28;20173;-86
2021/11/06 02:33:48;;;;;;;9.15;4.55;;;8.50;99.90;;;;;;4963292;28;20034;-86
2021/11/06 02:36:14;;;;;;;11.00;4.70;;;8.50;99.90;;;;;;4979453;28;20045;-87
2021/11/06 02:38:41;;;;;;;10.85;4.07;;;8.40;99.90;;;;;;4997360;28;20655;-87
2021/11/06 02:41:07;;;;;;;11.68;4.97;;;8.40;99.90;;;;;;4980666;28;20099;-87
2021/11/06 02:43:33;;;;;;;18.67;4.95;;;8.40;99.90;;;;;;4977171;28;20483;-87
2021/11/06 02:45:59;;;;;;;17.30;5.47;;;8.50;99.90;;;;;;4979186;28;20342;-87
2021/11/06 02:48:25;;;;;;;15.88;5.07;;;8.50;99.90;;;;;;4977814;28;20061;-87
2021/11/06 02:50:51;;;;;;;9.98;5.30;;;8.50;99.90;;;;;;4995802;28;20203;-87
2021/11/06 02:53:17;;;;;;;14.82;5.13;;;8.50;99.90;;;;;;4973756;28;20376;-87
2021/11/06 02:55:43;;;;;;;13.10;5.55;;;8.50;99.90;;;;;;4959841;28;20038;-87
2021/11/06 02:58:08;;;;;;;13.32;5.60;;;8.50;99.90;;;;;;4978191;28;20493;-86
2021/11/06 03:00:34;;;;;;;14.30;6.07;;;8.50;99.90;;;;;;4979302;28;20125;-86
2021/11/06 03:03:00;;;;;;;13.65;6.10;;;8.50;99.90;;;;;;4978686;28;20107;-88
2021/11/06 03:05:26;;;;;;;20.40;6.10;;;8.50;99.90;;;;;;4981762;28;20042;-88
2021/11/06 03:07:52;;;;;;;12.05;5.60;;;8.50;99.90;;;;;;4996902;28;20042;-86
2021/11/06 03:10:18;;;;;;;16.02;6.05;;;8.50;99.90;;;;;;4976017;28;20077;-87
2021/11/06 03:12:45;;;;;;;18.30;6.80;;;8.50;99.90;;;;;;4977103;28;20096;-87
2021/11/06 03:15:11;;;;;;;16.33;6.75;;;8.50;99.90;;;;;;4983002;28;20056;-86
2021/11/06 03:17:37;;;;;;;14.02;6.40;;;8.50;99.90;;;;;;4981715;28;21581;-88
2021/11/06 03:20:05;;;;;;;17.98;6.32;;;8.50;99.90;;;;;;5012556;28;20038;-88
2021/11/06 03:22:31;;;;;;;13.02;6.88;;;8.50;99.90;;;;;;4947253;28;20046;-87
2021/11/06 03:24:58;;;;;;;15.00;6.28;;;8.50;99.90;;;;;;4961609;28;20088;-88
2021/11/06 03:27:23;;;;;;;13.48;6.70;;;8.50;99.90;;;;;;4981637;28;20104;-88
2021/11/06 03:29:52;;;;;;;17.30;6.70;;;8.50;99.90;;;;;;4980862;28;20041;-88
2021/11/06 03:32:17;;;;;;;17.67;6.30;;;8.50;99.90;;;;;;4999322;28;22158;-87
2021/11/06 03:34:43;;;;;;;18.00;7.28;;;8.50;99.90;;;;;;4981334;28;20444;-87
2021/11/06 03:37:09;;;;;;;17.58;7.50;;;8.50;99.90;;;;;;4982480;28;20121;-87
2021/11/06 03:39:36;;;;;;;15.45;7.68;;;8.40;99.90;;;;;;4966486;28;20132;-88
2021/11/06 03:42:03;;;;;;;20.27;7.50;;;8.50;99.90;;;;;;4984572;28;21188;-87
2021/11/06 03:44:29;;;;;;;20.98;8.30;;;8.40;99.90;;;;;;4983002;28;20041;-87
2021/11/06 03:46:54;;;;;;;17.15;8.23;;;8.40;99.90;;;;;;4980640;28;20049;-86
2021/11/06 03:49:20;;;;;;;15.80;7.75;;;8.40;99.90;;;;;;4984432;28;20080;-88
2021/11/06 03:51:46;;;;;;;15.95;8.45;;;8.40;99.90;;;;;;4996470;28;20057;-89
2021/11/06 03:54:12;;;;;;;14.20;8.10;;;8.40;99.90;;;;;;4968217;28;20127;-88
2021/11/06 03:56:38;;;;;;;17.63;8.20;;;8.40;99.90;;;;;;4986841;28;20034;-87
2021/11/06 03:59:04;;;;;;;13.70;8.57;;;8.40;99.90;;;;;;4982435;28;20058;-87
2021/11/06 04:01:32;;;;;;;18.60;9.57;;;8.30;99.90;;;;;;4983997;28;20046;-86
2021/11/06 04:03:58;;;;;;;18.17;9.15;;;8.30;99.90;;;;;;4998606;28;20045;-87
2021/11/06 04:06:24;;;;;;;19.52;10.27;;;8.30;99.90;;;;;;4953326;28;20319;-87
2021/11/06 04:08:51;;;;;;;19.20;9.73;;;8.30;99.90;;;;;;4981369;28;20037;-89
2021/11/06 04:11:18;;;;;;;16.58;10.73;;;8.40;99.90;;;;;;4966455;28;20121;-88
2021/11/06 04:13:44;;;;;;;18.75;10.82;;;8.40;99.90;;;;;;5001983;28;20041;-88
2021/11/06 04:16:10;;;;;;;20.13;11.80;;;8.30;99.90;;;;;;4982510;28;20041;-87
2021/11/06 04:18:35;;;;;;;22.48;12.95;;;8.30;99.90;;;;;;4993469;28;20040;-87
2021/11/06 04:21:01;;;;;;;22.95;12.77;;;8.40;99.90;;;;;;4981933;28;20093;-88
2021/11/06 04:23:27;;;;;;;15.80;12.18;;;8.40;99.90;;;;;;4982960;28;20029;-87
2021/11/06 04:25:54;;;;;;;23.55;14.32;;;8.40;99.90;;;;;;4980051;28;20068;-87
2021/11/06 04:28:19;;;;;;;24.17;14.25;;;8.40;99.90;;;;;;5000947;28;20073;-87
2021/11/06 04:30:45;;;;;;;30.42;15.27;;;8.40;99.90;;;;;;4999579;28;20310;-86
2021/11/06 04:33:11;;;;;;;24.17;16.33;;;8.40;99.90;;;;;;4986422;28;20048;-86
2021/11/06 04:35:37;;;;;;;27.50;15.93;;;8.40;99.90;;;;;;4985428;28;20504;-87
2021/11/06 04:38:03;;;;;;;22.65;16.67;;;8.40;99.90;;;;;;4973164;28;20534;-89
2021/11/06 04:40:29;;;;;;;24.63;17.77;;;8.50;99.90;;;;;;4979976;28;20038;-87
2021/11/06 04:42:54;;;;;;;27.10;17.98;;;8.50;99.90;;;;;;4968178;28;20049;-88
2021/11/06 04:45:20;;;;;;;28.23;18.10;;;8.50;99.90;;;;;;4980713;28;20050;-89
2021/11/06 04:47:46;;;;;;;30.55;19.15;;;8.50;99.90;;;;;;4995485;28;20065;-89
2021/11/06 04:50:12;;;;;;;31.83;19.05;;;8.50;99.90;;;;;;4980741;28;20038;-88
2021/11/06 04:52:39;;;;;;;31.70;19.95;;;8.50;99.90;;;;;;4981413;28;20030;-88
2021/11/06 04:55:08;;;;;;;37.78;19.85;;;8.50;99.90;;;;;;4980235;28;20086;-87
2021/11/06 04:57:34;;;;;;;29.77;20.38;;;8.50;99.90;;;;;;4980794;28;20485;-87
2021/11/06 05:00:00;;;;;;;32.70;21.50;;;8.50;99.90;;;;;;4948033;28;20092;-88
2021/11/06 05:02:26;;;;;;;35.10;21.33;;;8.50;99.90;;;;;;4995486;28;20519;-88
2021/11/06 05:04:52;;;;;;;39.53;21.88;;;8.50;99.90;;;;;;4979851;28;20044;-86
2021/11/06 05:07:17;;;;;;;35.55;22.25;;;8.50;99.90;;;;;;5009032;28;20041;-87
2021/11/06 05:09:43;;;;;;;33.03;22.15;;;8.50;99.90;;;;;;4977332;28;20569;-88
2021/11/06 05:12:11;;;;;;;35.63;21.70;;;8.60;99.90;;;;;;4981555;28;20125;-89
2021/11/06 05:14:37;;;;;;;35.78;24.02;;;8.50;99.90;;;;;;4981952;28;20034;-88
2021/11/06 05:17:03;;;;;;;39.28;24.17;;;8.60;99.90;;;;;;4980873;28;20507;-87
2021/11/06 05:19:28;;;;;;;41.70;24.27;;;8.60;99.90;;;;;;4979712;28;20444;-86
2021/11/06 05:21:54;;;;;;;39.70;26.30;;;8.60;99.90;;;;;;4981300;28;20444;-85
2021/11/06 05:24:20;;;;;;;39.97;25.88;;;8.60;99.90;;;;;;4998810;28;20338;-87
2021/11/06 05:26:46;;;;;;;45.42;27.83;;;8.60;99.90;;;;;;4963999;28;20508;-86
2021/11/06 05:29:12;;;;;;;43.88;27.88;;;8.60;99.90;;;;;;4944856;28;20528;-86
2021/11/06 05:31:39;;;;;;;48.15;28.48;;;8.60;99.90;;;;;;4981582;28;20046;-85
2021/11/06 05:34:06;;;;;;;44.75;29.50;;;8.60;99.90;;;;;;5001910;28;20497;-87
2021/11/06 05:36:32;;;;;;;44.70;28.13;;;8.60;99.90;;;;;;4995360;28;20033;-85
2021/11/06 05:38:58;;;;;;;47.95;29.98;;;8.60;99.90;;;;;;4979286;28;20097;-88
2021/11/06 05:41:24;;;;;;;47.38;29.20;;;8.60;99.90;;;;;;4961363;28;20042;-86
2021/11/06 05:43:50;;;;;;;45.15;29.90;;;8.60;99.90;;;;;;4980456;28;20042;-87
2021/11/06 05:46:16;;;;;;;49.08;31.15;;;8.60;99.90;;;;;;4977742;28;20030;-86
2021/11/06 05:48:41;;;;;;;48.28;31.13;;;8.70;99.90;;;;;;4983138;28;21509;-87
2021/11/06 05:51:07;;;;;;;52.70;32.22;;;8.70;99.90;;;;;;4981227;28;20040;-88
2021/11/06 05:53:33;;;;;;;51.65;31.98;;;8.70;99.90;;;;;;4999277;28;20121;-86
2021/11/06 05:55:59;;;;;;;48.03;31.15;;;8.70;99.90;;;;;;4983374;28;20044;-86
2021/11/06 05:58:24;;;;;;;52.15;32.28;;;8.70;99.90;;;;;;4948957;28;20042;-87
2021/11/06 06:00:51;;;;;;;56.67;32.35;;;8.70;99.90;;;;;;4975511;28;20802;-86
2021/11/06 06:03:17;;;;;;;45.60;30.88;;;8.70;99.90;;;;;;4980368;28;20044;-83
2021/11/06 06:05:44;;;;;;;43.47;29.30;;;8.70;99.90;;;;;;4969487;28;20038;-88
2021/11/06 06:08:10;;;;;;;49.83;32.13;;;8.70;99.90;;;;;;4946073;28;20560;-85
2021/11/06 06:10:36;;;;;;;47.08;31.42;;;8.70;99.90;;;;;;4958165;28;20093;-86
2021/11/06 06:13:02;;;;;;;48.40;31.10;;;8.70;99.90;;;;;;4996305;28;20033;-87
2021/11/06 06:15:28;;;;;;;42.15;30.33;;;8.70;99.90;;;;;;4979802;28;20049;-83
2021/11/06 06:17:54;;;;;;;51.58;30.48;;;8.70;99.90;;;;;;4999933;28;20061;-86
2021/11/06 06:20:20;;;;;;;45.63;29.70;;;8.70;99.90;;;;;;4984551;28;20041;-87
2021/11/06 06:22:46;;;;;;;49.30;31.40;;;8.70;99.90;;;;;;4985878;28;20508;-84
2021/11/06 06:25:14;;;;;;;45.33;31.13;;;8.70;99.90;;;;;;5016683;28;20042;-87
2021/11/06 06:27:41;;;;;;;45.80;30.92;;;8.60;99.90;;;;;;4963475;28;20046;-86
2021/11/06 06:30:10;;;;;;;45.92;30.85;;;8.60;99.90;;;;;;4973244;28;20046;-87
2021/11/06 06:32:39;;;;;;;47.70;30.02;;;8.60;99.90;;;;;;4989982;28;20508;-85
2021/11/06 06:35:09;;;;;;;42.55;30.85;;;8.60;99.90;;;;;;5003504;28;20038;-86
2021/11/06 06:37:35;;;;;;;45.90;30.10;;;8.60;99.90;;;;;;4977739;28;20037;-82
2021/11/06 06:40:03;;;;;;;46.58;29.13;;;8.60;99.90;;;;;;4963475;28;20576;-82
2021/11/06 06:42:29;;;;;;;44.85;29.35;;;8.60;99.90;;;;;;4978902;28;20045;-87
2021/11/06 06:44:54;;;;;;;46.53;29.60;;;8.60;99.90;;;;;;4993032;28;20046;-86
2021/11/06 06:47:20;;;;;;;49.30;29.70;;;8.60;99.90;;;;;;4940248;28;20087;-84
2021/11/06 06:49:47;;;;;;;43.85;28.95;;;8.60;99.90;;;;;;4949561;28;20407;-85
2021/11/06 06:52:16;;;;;;;41.80;27.88;;;8.60;99.90;;;;;;4976571;28;20042;-83
2021/11/06 06:54:42;;;;;;;49.15;30.02;;;8.60;99.90;;;;;;4979783;28;20078;-85
2021/11/06 06:57:08;;;;;;;44.72;29.38;;;8.60;99.90;;;;;;4992546;28;20069;-85
2021/11/06 06:59:34;;;;;;;45.92;28.33;;;8.60;99.90;;;;;;4957436;28;20099;-87
2021/11/06 07:02:06;;;;;;;44.00;29.42;;;8.60;99.90;;;;;;4991498;28;20589;-86
2021/11/06 07:04:45;;;;;;;45.20;28.13;;;8.60;99.90;;;;;;4988272;28;20539;-85
2021/11/06 07:07:11;;;;;;;43.88;29.20;;;8.60;99.90;;;;;;4980797;28;20045;-83
2021/11/06 07:09:37;;;;;;;44.67;30.02;;;8.60;99.90;;;;;;4970526;28;20042;-84
2021/11/06 07:12:04;;;;;;;48.55;31.58;;;8.60;99.90;;;;;;4963510;28;20519;-87
2021/11/06 07:14:29;;;;;;;49.60;29.98;;;8.60;99.90;;;;;;4985811;28;20046;-84
2021/11/06 07:16:55;;;;;;;46.03;31.40;;;8.60;99.90;;;;;;4983403;28;20043;-85
2021/11/06 07:20:02;;;;;;;49.35;29.48;;;8.60;99.90;;;;;;4980043;28;20062;-85
2021/11/06 07:22:27;;;;;;;42.08;29.00;;;8.60;99.90;;;;;;4997350;28;20038;-85
2021/11/06 07:24:53;;;;;;;50.45;30.70;;;8.60;99.90;;;;;;4998354;28;20052;-85
2021/11/06 07:27:19;;;;;;;46.60;29.40;;;8.60;99.90;;;;;;4976997;28;20038;-86
2021/11/06 07:29:45;;;;;;;54.90;31.63;;;8.60;99.90;;;;;;5003076;28;20100;-84
2021/11/06 07:32:12;;;;;;;50.35;30.15;;;8.60;99.90;;;;;;4980184;28;20035;-82
2021/11/06 07:34:38;;;;;;;48.97;31.27;;;8.60;99.90;;;;;;4995553;28;20057;-85
2021/11/06 07:37:07;;;;;;;46.28;31.10;;;8.60;99.90;;;;;;4995726;28;20045;-85
2021/11/06 07:39:53;;;;;;;51.55;30.50;;;8.60;99.90;;;;;;4960546;28;20161;-85
2021/11/06 07:42:19;;;;;;;52.90;30.98;;;8.60;99.90;;;;;;4967480;28;20094;-84
2021/11/06 07:44:45;;;;;;;48.30;29.35;;;8.60;99.90;;;;;;4971702;28;20405;-84
2021/11/06 07:47:10;;;;;;;46.35;30.58;;;8.70;99.90;;;;;;4987038;28;20050;-83
2021/11/06 07:49:36;;;;;;;43.20;28.42;;;8.60;99.90;;;;;;4953517;28;20080;-86
2021/11/06 07:52:02;;;;;;;46.33;29.65;;;8.60;99.90;;;;;;4973771;28;20292;-84
2021/11/06 07:54:28;;;;;;;48.17;29.10;;;8.70;99.90;;;;;;5006270;28;20038;-83
2021/11/06 07:56:55;;;;;;;43.50;28.83;;;8.70;99.90;;;;;;4974492;28;20045;-86
2021/11/06 07:59:21;;;;;;;44.63;29.65;;;8.70;99.90;;;;;;4976295;28;20120;-84
2021/11/06 08:01:47;;;;;;;44.90;29.08;;;8.70;99.90;;;;;;4980244;28;20442;-83
2021/11/06 08:04:13;;;;;;;49.05;29.80;;;8.70;99.90;;;;;;4991459;28;20066;-84
2021/11/06 08:06:38;;;;;;;44.55;28.67;;;8.70;99.90;;;;;;4989482;28;20068;-83
2021/11/06 08:09:05;;;;;;;47.97;29.63;;;8.70;99.90;;;;;;4985291;28;20145;-86
2021/11/06 08:11:31;;;;;;;49.88;28.65;;;8.70;99.90;;;;;;5002974;28;20041;-84
2021/11/06 08:13:57;;;;;;;43.63;28.83;;;8.70;99.90;;;;;;4985943;28;22701;-83
2021/11/06 08:16:23;;;;;;;48.53;29.77;;;8.70;99.90;;;;;;4957206;28;20103;-85
2021/11/06 08:18:50;;;;;;;49.30;30.05;;;8.70;99.90;;;;;;4958462;28;20037;-85
2021/11/06 08:21:17;;;;;;;50.67;29.27;;;8.70;99.90;;;;;;4988347;28;20116;-83
2021/11/06 08:23:43;;;;;;;49.33;29.75;;;8.70;99.90;;;;;;4957753;28;20037;-84
2021/11/06 08:26:11;;;;;;;53.67;31.95;;;8.80;99.90;;;;;;5012684;28;20054;-88
2021/11/06 08:28:37;;;;;;;52.42;31.52;;;8.70;99.90;;;;;;4989994;28;20080;-85
2021/11/06 08:31:03;;;;;;;51.00;31.02;;;8.70;99.90;;;;;;4960530;28;20635;-86
2021/11/06 08:33:31;;;;;;;53.22;30.42;;;8.70;99.90;;;;;;4965061;28;20046;-87
2021/11/06 08:35:58;;;;;;;58.70;32.60;;;8.70;99.90;;;;;;4959322;28;20042;-88
2021/11/06 08:38:25;;;;;;;53.25;30.63;;;8.70;99.90;;;;;;4955728;28;20038;-86
2021/11/06 08:40:51;;;;;;;52.65;29.85;;;8.70;99.90;;;;;;4970548;28;20042;-87
2021/11/06 08:43:18;;;;;;;60.78;31.15;;;8.70;99.90;;;;;;4980170;28;20057;-87
2021/11/06 08:45:46;;;;;;;54.40;30.25;;;8.70;99.90;;;;;;4975689;28;20148;-86
2021/11/06 08:48:12;;;;;;;52.42;29.15;;;8.80;99.90;;;;;;4983942;28;20146;-86
2021/11/06 08:50:38;;;;;;;56.78;29.45;;;8.80;99.90;;;;;;5019511;28;20164;-86
2021/11/06 08:53:04;;;;;;;58.45;30.88;;;8.70;99.90;;;;;;4986818;28;20072;-85
2021/11/06 08:55:30;;;;;;;57.15;30.80;;;8.80;99.90;;;;;;4985909;28;20038;-84
2021/11/06 08:58:00;;;;;;;63.15;30.48;;;8.80;99.90;;;;;;4988854;28;20034;-85
2021/11/06 09:00:34;;;;;;;55.05;29.35;;;8.80;99.90;;;;;;5000666;28;20040;-88
2021/11/06 09:03:06;;;;;;;53.25;29.67;;;8.90;99.90;;;;;;5021339;28;20038;-87
2021/11/06 09:05:33;;;;;;;58.50;29.65;;;8.90;99.90;;;;;;5003459;28;20073;-84
2021/11/06 09:08:03;;;;;;;56.28;30.13;;;8.90;99.90;;;;;;4982357;28;20045;-88
2021/11/06 09:10:32;;;;;;;55.10;30.23;;;8.90;99.90;;;;;;4984622;28;20044;-85
2021/11/06 09:12:58;;;;;;;58.88;30.27;;;8.90;99.90;;;;;;4972063;28;20026;-86
2021/11/06 09:15:24;;;;;;;50.85;29.38;;;8.90;99.90;;;;;;5002448;28;20050;-87
2021/11/06 09:17:52;;;;;;;52.72;30.83;;;9.00;99.90;;;;;;4987088;28;20041;-85
2021/11/06 09:20:18;;;;;;;55.28;28.52;;;9.00;99.90;;;;;;4980893;28;20108;-86
2021/11/06 09:22:45;;;;;;;54.80;28.20;;;9.10;99.90;;;;;;4990800;28;20096;-84
2021/11/06 09:25:11;;;;;;;51.33;28.42;;;9.00;99.90;;;;;;4989420;28;20038;-84
2021/11/06 09:27:37;;;;;;;55.50;29.95;;;9.10;99.90;;;;;;4986991;28;20045;-84
2021/11/06 09:30:09;;;;;;;62.10;30.42;;;9.10;99.90;;;;;;4983328;28;20038;-84
2021/11/06 09:32:40;;;;;;;51.58;29.77;;;9.00;99.90;;;;;;5006513;28;20053;-84
2021/11/06 09:35:06;;;;;;;52.53;28.83;;;9.10;99.90;;;;;;4988329;28;20089;-84
2021/11/06 09:37:32;;;;;;;57.78;28.77;;;9.10;99.90;;;;;;4966322;28;21532;-85
2021/11/06 09:39:58;;;;;;;56.13;29.40;;;9.20;99.90;;;;;;4944082;28;20065;-84
2021/11/06 09:42:26;;;;;;;49.67;29.83;;;9.20;99.90;;;;;;4962043;28;20045;-86
2021/11/06 09:44:52;;;;;;;50.45;28.60;;;9.20;99.90;;;;;;4992779;28;20033;-86
2021/11/06 09:47:19;;;;;;;56.78;30.15;;;9.30;99.90;;;;;;4974470;28;20072;-86
2021/11/06 09:49:46;;;;;;;51.65;28.75;;;9.30;99.90;;;;;;4982433;28;20042;-84
2021/11/06 09:52:12;;;;;;;49.72;28.17;;;9.40;99.90;;;;;;4995623;28;20065;-83
2021/11/06 09:54:41;;;;;;;48.45;26.10;;;9.50;99.90;;;;;;4981754;28;20108;-85
2021/11/06 09:57:07;;;;;;;45.20;26.05;;;9.50;99.90;;;;;;4976725;28;20065;-84
2021/11/06 09:59:34;;;;;;;49.05;26.33;;;9.60;99.90;;;;;;4990704;28;20037;-84
2021/11/06 10:02:01;;;;;;;42.75;25.10;;;9.60;99.90;;;;;;4972895;28;20042;-87
2021/11/06 10:04:29;;;;;;;49.30;25.95;;;9.70;99.90;;;;;;4973097;28;20057;-86
2021/11/06 10:06:58;;;;;;;42.88;24.60;;;9.70;99.90;;;;;;4954583;28;20381;-88
2021/11/06 10:09:27;;;;;;;45.47;24.40;;;9.80;99.90;;;;;;4967622;28;20069;-85
2021/11/06 10:11:55;;;;;;;43.55;24.60;;;9.80;99.90;;;;;;4988940;28;20038;-87
2021/11/06 10:14:31;;;;;;;48.40;26.35;;;9.80;99.90;;;;;;4972944;28;20404;-84
2021/11/06 10:17:01;;;;;;;47.92;24.60;;;9.80;99.90;;;;;;5001607;28;20041;-85
2021/11/06 10:19:30;;;;;;;43.95;27.42;;;9.80;99.90;;;;;;4949440;28;20045;-85
2021/11/06 10:22:09;;;;;;;55.00;27.77;;;9.90;99.90;;;;;;5003801;28;20056;-87
2021/11/06 10:24:54;;;;;;;46.60;24.83;;;9.90;99.90;;;;;;4984004;28;20057;-85
2021/11/06 10:27:24;;;;;;;40.65;23.70;;;10.00;99.90;;;;;;4975705;28;20414;-87
2021/11/06 10:30:14;;;;;;;45.63;26.00;;;9.90;99.90;;;;;;5000393;28;20050;-88
2021/11/06 10:32:42;;;;;;;44.03;24.33;;;10.00;99.90;;;;;;4990631;28;20038;-85
2021/11/06 10:35:20;;;;;;;43.20;22.55;;;10.10;99.90;;;;;;5000835;28;20046;-86
2021/11/06 10:37:48;;;;;;;40.88;22.40;;;10.10;99.90;;;;;;4999437;28;20030;-86
2021/11/06 10:40:18;;;;;;;39.22;22.23;;;10.10;99.90;;;;;;4954480;28;20463;-87
2021/11/06 10:42:53;;;;;;;43.05;22.20;;;10.10;99.90;;;;;;4975357;28;20053;-87
2021/11/06 10:45:23;;;;;;;43.92;22.35;;;10.10;99.90;;;;;;4968808;28;20050;-84
2021/11/06 10:48:01;;;;;;;40.03;21.83;;;10.10;99.90;;;;;;4969322;28;20046;-87
2021/11/06 10:50:59;;;;;;;45.25;23.08;;;10.20;99.90;;;;;;4985281;28;20124;-88
2021/11/06 10:53:33;;;;;;;42.83;21.08;;;10.10;99.90;;;;;;4984162;28;20520;-86
2021/11/06 10:56:06;;;;;;;39.75;21.85;;;10.20;99.90;;;;;;4978020;28;20060;-87
2021/11/06 10:58:36;;;;;;;40.22;20.70;;;10.20;99.90;;;;;;4971765;28;20100;-87
2021/11/06 11:01:05;;;;;;;40.20;21.88;;;10.20;99.90;;;;;;4971851;28;20131;-84
2021/11/06 11:03:37;;;;;;;40.22;21.67;;;10.20;99.90;;;;;;4992763;28;20038;-86
2021/11/06 11:06:15;;;;;;;41.35;21.50;;;10.20;99.90;;;;;;4993759;28;20041;-86
2021/11/06 11:08:54;;;;;;;41.47;21.15;;;10.30;99.90;;;;;;4981297;28;20492;-90
2021/11/06 11:11:37;;;;;;;40.50;20.50;;;10.30;99.90;;;;;;5012235;28;20033;-89
2021/11/06 11:14:15;;;;;;;40.22;21.52;;;10.30;99.90;;;;;;4997479;28;20057;-87
2021/11/06 11:16:56;;;;;;;35.60;20.30;;;10.30;99.90;;;;;;4971056;28;20037;-85
2021/11/06 11:19:44;;;;;;;44.50;21.77;;;10.40;99.90;;;;;;4973921;28;20497;-84
2021/11/06 11:22:35;;;;;;;36.53;19.05;;;10.40;99.90;;;;;;4969732;28;20037;-87
2021/11/06 11:25:07;;;;;;;36.90;20.23;;;10.40;99.90;;;;;;4976428;28;20042;-89
2021/11/06 11:27:33;;;;;;;35.40;19.25;;;10.40;99.90;;;;;;4969959;28;20038;-86
2021/11/06 11:29:59;;;;;;;37.67;19.85;;;10.40;99.90;;;;;;4927160;28;20042;-85
2021/11/06 11:32:25;;;;;;;37.78;20.05;;;10.40;99.90;;;;;;4970357;28;20041;-85
2021/11/06 11:35:09;;;;;;;42.13;20.17;;;10.40;99.90;;;;;;4953671;28;20347;-88
2021/11/06 11:37:35;;;;;;;30.73;18.73;;;10.40;99.90;;;;;;4972000;28;20688;-85
2021/11/06 11:40:07;;;;;;;34.00;18.85;;;10.30;99.90;;;;;;4992815;28;20029;-85
2021/11/06 11:43:11;;;;;;;39.95;19.95;;;10.30;99.90;;;;;;4961677;28;20037;-87
2021/11/06 11:45:53;;;;;;;34.10;18.88;;;10.40;99.90;;;;;;4988601;28;20092;-86
2021/11/06 11:48:29;;;;;;;33.10;17.92;;;10.40;99.90;;;;;;4975766;28;20512;-85
2021/11/06 11:51:01;;;;;;;39.33;19.00;;;10.40;99.90;;;;;;4987055;28;20049;-84
2021/11/06 11:53:51;;;;;;;34.03;17.95;;;10.30;99.90;;;;;;4980084;28;20474;-87
2021/11/06 11:56:23;;;;;;;28.77;16.05;;;10.40;99.90;;;;;;4996199;28;20485;-85
2021/11/06 11:58:49;;;;;;;35.67;17.48;;;10.40;99.90;;;;;;4992317;28;20491;-88
2021/11/06 12:01:21;;;;;;;34.35;16.98;;;10.40;99.90;;;;;;5010665;28;20042;-85
2021/11/06 12:03:49;;;;;;;30.45;16.92;;;10.40;99.90;;;;;;4976632;28;20504;-86
2021/11/06 12:06:33;;;;;;;25.77;15.93;;;10.40;99.90;;;;;;5008790;28;20056;-85
2021/11/06 12:09:12;;;;;;;32.13;16.48;;;10.40;99.90;;;;;;4990130;28;20058;-85
2021/11/06 12:11:55;;;;;;;34.00;16.33;;;10.40;99.90;;;;;;4973648;28;20192;-88
2021/11/06 12:14:44;;;;;;;32.97;16.02;;;10.40;99.90;;;;;;4974082;28;20080;-85
2021/11/06 12:17:10;;;;;;;33.35;15.60;;;10.40;99.90;;;;;;4986847;28;20046;-87
2021/11/06 12:19:42;;;;;;;36.50;16.08;;;10.40;99.90;;;;;;4995136;28;20125;-87
2021/11/06 12:22:11;;;;;;;34.25;15.55;;;10.50;99.90;;;;;;4981634;28;20058;-83
2021/11/06 12:24:38;;;;;;;33.05;19.40;;;10.40;99.90;;;;;;5000882;28;20033;-87
2021/11/06 12:27:14;;;;;;;32.88;17.23;;;10.40;99.90;;;;;;5000968;28;20662;-87
2021/11/06 12:29:54;;;;;;;38.58;23.00;;;10.50;99.90;;;;;;4981819;28;20045;-87
2021/11/06 12:32:25;;;;;;;40.17;21.60;;;10.50;99.90;;;;;;4987036;28;20080;-85
2021/11/06 12:34:54;;;;;;;45.28;27.65;;;10.50;99.90;;;;;;5002395;28;20160;-85
2021/11/06 12:37:36;;;;;;;43.15;27.75;;;10.50;99.90;;;;;;4982463;28;20041;-83
2021/11/06 12:40:06;;;;;;;36.90;22.05;;;10.50;99.90;;;;;;4979264;28;20707;-83
2021/11/06 12:42:32;;;;;;;32.28;19.13;;;10.60;99.90;;;;;;5002447;28;20133;-86
2021/11/06 12:45:06;;;;;;;30.77;15.35;;;10.60;99.90;;;;;;4975763;28;20037;-87